Time;durP1;ratioP1;P1;durP2;ratioP2;P2;SDS_P1;SDS_P2;PMS_P1;PMS_P2;Temp;Humidity;BMP_temperature;BMP_pressure;BME280_temperature;BME280_humidity;BME280_pressure;Samples;Min_cycle;Max_cycle;Signal;HPM_P1;HPM_P2
2023/04/18 00:00:39;;;;;;;;;10.00;8.00;;;;;11.92;100.00;99356.47;6284257;20;2756686;-52
2023/04/18 00:03:08;;;;;;;;;11.00;11.00;;;;;11.99;100.00;99355.06;6286471;20;2787758;-50
2023/04/18 00:05:37;;;;;;;;;9.50;9.00;;;;;11.95;100.00;99358.09;6284515;20;2768068;-53
2023/04/18 00:08:05;;;;;;;;;7.00;7.00;;;;;11.99;100.00;99359.59;6289963;20;2733689;-54
2023/04/18 00:10:34;;;;;;;;;10.40;8.40;;;;;11.99;100.00;99359.59;6304919;20;2735749;-55
2023/04/18 00:13:02;;;;;;;;;9.50;8.00;;;;;11.99;100.00;99365.84;6315448;20;2752362;-51
2023/04/18 00:15:31;;;;;;;;;5.00;5.00;;;;;12.06;100.00;99366.25;6283836;20;2745090;-53
2023/04/18 00:18:02;;;;;;;;;9.50;8.00;;;;;11.98;100.00;99369.50;6283990;20;2733624;-53
2023/04/18 00:20:31;;;;;;;;;8.00;8.00;;;;;11.96;100.00;99371.44;6282283;20;2748251;-51
2023/04/18 00:22:59;;;;;;;;;11.00;8.00;;;;;12.01;100.00;99363.91;6285952;20;2769074;-51
2023/04/18 00:25:29;;;;;;;;;9.00;9.00;;;;;11.96;100.00;99368.75;6304248;20;2747152;-49
2023/04/18 00:27:58;;;;;;;;;7.80;7.80;;;;;12.01;100.00;99373.81;6339086;20;2735725;-54
2023/04/18 00:30:27;;;;;;;;;8.00;8.00;;;;;11.99;100.00;99375.75;6316952;20;2752336;-54
2023/04/18 00:32:54;;;;;;;;;8.00;8.00;;;;;12.02;100.00;99370.97;6287061;20;2738821;-54
2023/04/18 00:35:23;;;;;;;;;11.00;8.00;;;;;12.08;100.00;99370.56;6283063;20;2759665;-54
2023/04/18 00:37:51;;;;;;;;;8.50;8.50;;;;;12.07;100.00;99366.13;6287068;20;2737922;-53
2023/04/18 00:40:19;;;;;;;;;9.00;9.00;;;;;12.01;100.00;99368.41;6287042;20;2733621;-50
2023/04/18 00:42:47;;;;;;;;;10.00;9.00;;;;;12.01;100.00;99369.28;6284444;20;2759688;-54
2023/04/18 00:45:15;;;;;;;;;10.50;8.00;;;;;12.06;100.00;99369.81;6278744;20;2752371;-53
2023/04/18 00:47:46;;;;;;;;;8.71;7.29;;;;;12.02;100.00;99368.28;6325149;20;3452338;-51
2023/04/18 00:50:16;;;;;;;;;9.00;9.00;;;;;12.11;100.00;99366.75;6339060;20;2753586;-51
2023/04/18 00:52:45;;;;;;;;;10.50;7.50;;;;;11.98;100.00;99366.81;6314127;20;2749699;-52
2023/04/18 00:55:14;;;;;;;;;11.00;9.00;;;;;12.05;100.00;99364.53;6283173;20;2777362;-53
2023/04/18 00:57:42;;;;;;;;;8.00;8.00;;;;;12.02;100.00;99359.38;6283696;20;2725286;-52
2023/04/18 01:00:14;;;;;;;;;7.71;7.71;;;;;12.07;100.00;99367.97;6323201;20;1796222;-54
2023/04/18 01:02:42;;;;;;;;;8.00;6.00;;;;;12.05;100.00;99365.38;6317670;20;2741413;-49
2023/04/18 01:05:10;;;;;;;;;10.00;9.00;;;;;12.10;100.00;99365.03;6284662;20;2755542;-51
2023/04/18 01:07:41;;;;;;;;;10.00;8.00;;;;;12.00;100.00;99367.53;6283382;20;2760703;-54
2023/04/18 01:10:10;;;;;;;;;5.00;5.00;;;;;12.07;100.00;99363.44;6284244;20;2752368;-54
2023/04/18 01:12:40;;;;;;;;;7.20;7.20;;;;;11.95;100.00;99356.25;6309646;20;2737796;-55
2023/04/18 01:15:08;;;;;;;;;8.00;6.50;;;;;12.02;100.00;99362.91;6314233;20;2741048;-54
2023/04/18 01:17:38;;;;;;;;;8.40;8.40;;;;;11.92;100.00;99367.25;6306511;20;2752411;-54
2023/04/18 01:20:07;;;;;;;;;6.00;6.00;;;;;12.01;100.00;99355.81;6315613;20;2738853;-55
2023/04/18 01:22:39;;;;;;;;;8.57;8.57;;;;;11.94;100.00;99357.22;6327621;20;1797179;-54
2023/04/18 01:25:09;;;;;;;;;11.40;8.20;;;;;12.08;100.00;99367.88;6337586;20;2746227;-52
2023/04/18 01:27:37;;;;;;;;;9.00;6.00;;;;;12.04;100.00;99368.19;6284605;20;2744136;-51
2023/04/18 01:30:06;;;;;;;;;10.00;9.00;;;;;11.95;100.00;99364.31;6282040;20;2756559;-51
2023/04/18 01:32:34;;;;;;;;;9.00;9.00;;;;;12.14;100.00;99369.25;6285751;20;2735707;-53
2023/04/18 01:35:03;;;;;;;;;10.00;9.00;;;;;12.08;100.00;99370.56;6283653;20;2770249;-54
2023/04/18 01:37:31;;;;;;;;;7.00;7.00;;;;;11.88;100.00;99363.06;6285608;20;2744097;-52
2023/04/18 01:40:00;;;;;;;;;11.00;9.00;;;;;11.93;100.00;99373.47;6306883;20;2753558;-50
2023/04/18 01:42:29;;;;;;;;;8.00;8.00;;;;;11.92;100.00;99359.16;6282570;20;2752437;-52
2023/04/18 01:44:57;;;;;;;;;8.50;8.00;;;;;11.89;100.00;99370.16;6282213;20;2742978;-53
2023/04/18 01:47:25;;;;;;;;;10.00;10.00;;;;;11.80;100.00;99368.09;6279670;20;2794047;-53
2023/04/18 01:49:53;;;;;;;;;9.50;8.50;;;;;11.76;100.00;99358.53;6280430;20;2750465;-52
2023/04/18 01:52:20;;;;;;;;;8.50;7.50;;;;;11.72;100.00;99357.03;6285011;20;2738876;-52
2023/04/18 01:54:48;;;;;;;;;9.00;9.00;;;;;11.76;100.00;99363.91;6281148;20;2752398;-54
2023/04/18 01:57:16;;;;;;;;;7.50;7.50;;;;;11.69;100.00;99366.19;6282041;20;2733652;-54
2023/04/18 01:59:44;;;;;;;;;9.50;9.50;;;;;11.70;100.00;99365.22;6281343;20;2772143;-51
2023/04/18 02:02:12;;;;;;;;;8.50;8.00;;;;;11.69;100.00;99368.88;6283560;20;2742001;-54
2023/04/18 02:04:40;;;;;;;;;7.50;7.50;;;;;11.78;100.00;99368.22;6287204;20;2751464;-53
2023/04/18 02:07:07;;;;;;;;;10.00;9.00;;;;;11.74;100.00;99366.72;6279744;20;2762830;-50
2023/04/18 02:09:37;;;;;;;;;9.40;7.80;;;;;11.73;100.00;99375.75;6305492;20;2757804;-52
2023/04/18 02:12:07;;;;;;;;;11.40;10.00;;;;;11.82;100.00;99367.03;6338794;20;2794027;-52
2023/04/18 02:14:35;;;;;;;;;10.50;9.00;;;;;11.77;100.00;99368.31;6284310;20;2775275;-55
2023/04/18 02:17:05;;;;;;;;;11.80;9.40;;;;;11.86;100.00;99371.22;6307944;20;2783770;-54
2023/04/18 02:19:33;;;;;;;;;9.00;9.00;;;;;11.75;100.00;99367.56;6284357;20;2754514;-54
2023/04/18 02:22:01;;;;;;;;;12.00;8.00;;;;;11.76;100.00;99363.91;6281027;20;2755507;-55
2023/04/18 02:24:29;;;;;;;;;11.00;11.00;;;;;11.74;100.00;99371.22;6277872;20;2788967;-55
2023/04/18 02:26:57;;;;;;;;;10.00;10.00;;;;;11.92;100.00;99369.06;6282315;20;2781501;-53
2023/04/18 02:29:26;;;;;;;;;10.00;10.00;;;;;11.75;100.00;99372.97;6304777;20;2783600;-55
2023/04/18 02:31:57;;;;;;;;;10.00;10.00;;;;;11.74;100.00;99373.91;6277943;20;2796209;-53
2023/04/18 02:34:25;;;;;;;;;10.00;9.50;;;;;11.79;100.00;99377.97;6311881;20;2771242;-55
2023/04/18 02:36:53;;;;;;;;;12.00;10.50;;;;;11.81;100.00;99372.50;6280893;20;2790941;-53
2023/04/18 02:39:20;;;;;;;;;9.00;8.00;;;;;11.81;100.00;99377.88;6281621;20;2749332;-51
2023/04/18 02:41:50;;;;;;;;;10.80;10.60;;;;;11.81;100.00;99372.50;6306731;20;2789983;-53
2023/04/18 02:44:18;;;;;;;;;9.50;9.50;;;;;11.91;100.00;99378.97;6285457;20;2766938;-54
2023/04/18 02:46:47;;;;;;;;;10.60;9.60;;;;;11.85;100.00;99380.25;6300958;20;2789894;-55
2023/04/18 02:49:17;;;;;;;;;11.00;9.80;;;;;11.71;100.00;99376.81;6303294;20;2779561;-53
2023/04/18 02:51:45;;;;;;;;;13.00;11.00;;;;;11.71;100.00;99371.44;6280130;20;2794169;-55
2023/04/18 02:54:14;;;;;;;;;10.67;10.67;;;;;11.75;100.00;99381.88;6279325;20;2796187;-55
2023/04/18 02:56:43;;;;;;;;;14.33;14.00;;;;;11.72;100.00;99375.88;6311418;20;3535743;-53
2023/04/18 02:59:11;;;;;;;;;10.00;8.67;;;;;11.72;100.00;99378.56;6309558;20;2776775;-50
2023/04/18 03:01:39;;;;;;;;;10.00;10.00;;;;;11.80;100.00;99381.56;6311041;20;2786766;-51
2023/04/18 03:04:08;;;;;;;;;14.00;13.33;;;;;11.79;100.00;99382.50;6282096;20;2809734;-49
2023/04/18 03:06:35;;;;;;;;;13.00;12.00;;;;;11.81;100.00;99383.25;6307321;20;2785710;-55
2023/04/18 03:09:05;;;;;;;;;5.75;5.75;;;;;11.77;100.00;99387.13;6302398;20;1807723;-54
2023/04/18 03:11:33;;;;;;;;;38.33;32.33;;;;;11.64;100.00;99379.97;6316173;20;3618410;-55
2023/04/18 03:14:03;;;;;;;;;22.33;19.33;;;;;11.70;100.00;99386.72;6285467;20;2838854;-54
2023/04/18 03:16:32;;;;;;;;;49.33;40.67;;;;;11.63;100.00;99390.81;6313115;20;2864930;-55
2023/04/18 03:19:01;;;;;;;;;22.33;21.33;;;;;11.62;100.00;99383.72;6312798;20;3583596;-54
2023/04/18 03:21:29;;;;;;;;;20.00;18.00;;;;;11.60;100.00;99386.50;6283384;20;2832615;-54
2023/04/18 03:23:57;;;;;;;;;16.00;15.50;;;;;11.48;100.00;99390.09;6286278;20;2813833;-55
2023/04/18 03:26:25;;;;;;;;;29.50;23.50;;;;;11.46;100.00;99389.31;6286345;20;2843007;-54
2023/04/18 03:28:58;;;;;;;;;202.00;185.11;;;;;11.44;100.00;99396.63;6276837;20;3732614;-53
2023/04/18 03:31:26;;;;;;;;;16.67;15.33;;;;;11.48;100.00;99392.78;6315738;20;2813871;-53
2023/04/18 03:33:55;;;;;;;;;21.00;17.50;;;;;11.47;100.00;99390.16;6315761;20;2832599;-53
2023/04/18 03:36:24;;;;;;;;;8.00;8.00;;;;;11.41;100.00;99386.09;6285667;20;2731590;-52
2023/04/18 03:38:53;;;;;;;;;29.33;27.67;;;;;11.49;100.00;99385.56;6288711;20;3603443;-55
2023/04/18 03:41:22;;;;;;;;;11.50;6.50;;;;;11.39;100.00;99388.00;6282452;20;2773187;-52
2023/04/18 03:43:51;;;;;;;;;53.50;44.00;;;;;11.46;100.00;99394.69;6284898;20;2856670;-52
2023/04/18 03:46:20;;;;;;;;;27.00;27.00;;;;;11.46;100.00;99388.47;6282451;20;2849252;-50
2023/04/18 03:48:49;;;;;;;;;20.00;18.50;;;;;11.50;100.00;99390.81;6283795;20;2832581;-51
2023/04/18 03:51:17;;;;;;;;;11.00;11.00;;;;;11.29;100.00;99390.47;6278544;20;2784797;-54
2023/04/18 03:53:45;;;;;;;;;10.50;9.00;;;;;11.42;100.00;99394.03;6284693;20;2769186;-51
2023/04/18 03:56:14;;;;;;;;;14.33;14.33;;;;;11.42;100.00;99387.78;6281621;20;3532723;-52
2023/04/18 03:58:43;;;;;;;;;29.33;29.33;;;;;11.48;100.00;99392.78;6311477;20;3592104;-54
2023/04/18 04:01:11;;;;;;;;;12.33;12.33;;;;;11.45;100.00;99398.34;6281309;20;2794133;-48
2023/04/18 04:03:39;;;;;;;;;11.50;11.50;;;;;11.37;100.00;99389.94;6314621;20;2787876;-54
2023/04/18 04:06:07;;;;;;;;;9.00;9.00;;;;;11.47;100.00;99401.78;6282787;20;2764840;-53
2023/04/18 04:08:35;;;;;;;;;17.50;14.50;;;;;11.42;100.00;99399.41;6283647;20;2809672;-49
2023/04/18 04:11:04;;;;;;;;;12.33;11.33;;;;;11.50;100.00;99400.72;6283128;20;2785884;-52
2023/04/18 04:13:32;;;;;;;;;8.50;8.50;;;;;11.62;100.00;99411.47;6312267;20;2736712;-50
2023/04/18 04:15:59;;;;;;;;;8.50;6.50;;;;;11.64;100.00;99412.22;6285930;20;2749656;-49
2023/04/18 04:18:30;;;;;;;;;9.00;9.00;;;;;11.59;100.00;99422.44;6287369;20;2750259;-53
2023/04/18 04:21:04;;;;;;;;;10.00;9.00;;;;;11.69;100.00;99414.59;6309058;20;2780558;-53
2023/04/18 04:23:33;;;;;;;;;9.67;9.67;;;;;11.76;100.00;99420.38;6280766;20;2776298;-52
2023/04/18 04:26:03;;;;;;;;;12.50;11.00;;;;;11.60;100.00;99420.59;6316605;20;2789915;-52
2023/04/18 04:28:31;;;;;;;;;10.00;9.00;;;;;11.60;100.00;99424.16;6282250;20;2775285;-50
2023/04/18 04:30:59;;;;;;;;;11.50;11.50;;;;;11.59;100.00;99422.44;6282231;20;2784882;-51
2023/04/18 04:33:28;;;;;;;;;13.67;12.33;;;;;11.68;100.00;99420.06;6282268;20;2796075;-54
2023/04/18 04:35:56;;;;;;;;;11.00;11.00;;;;;11.76;100.00;99418.56;6315691;20;2791941;-52
2023/04/18 04:38:24;;;;;;;;;10.00;10.00;;;;;11.77;100.00;99427.47;6284190;20;2794074;-52
2023/04/18 04:40:52;;;;;;;;;6.00;6.00;;;;;11.85;100.00;99427.81;6301432;20;1800415;-54
2023/04/18 04:43:23;;;;;;;;;13.40;11.60;;;;;11.69;100.00;99438.81;6339724;20;2788908;-51
2023/04/18 04:45:51;;;;;;;;;7.50;7.00;;;;;11.75;100.00;99440.19;6289125;20;2740895;-52
2023/04/18 04:48:20;;;;;;;;;11.00;9.50;;;;;11.74;100.00;99438.47;6288059;20;2768057;-51
2023/04/18 04:50:59;;;;;;;;;13.00;12.33;;;;;11.82;100.00;99439.66;6282087;20;2803509;-52
2023/04/18 04:53:29;;;;;;;;;20.33;18.67;;;;;11.82;100.00;99441.47;6311620;20;3575292;-49
2023/04/18 04:55:58;;;;;;;;;25.33;23.67;;;;;11.89;100.00;99441.94;6279674;20;3589893;-49
2023/04/18 04:58:27;;;;;;;;;10.00;10.00;;;;;12.09;100.00;99441.38;6283682;20;2786816;-54
2023/04/18 05:00:55;;;;;;;;;10.50;10.50;;;;;12.14;100.00;99443.72;6311414;20;2789944;-48
2023/04/18 05:03:24;;;;;;;;;11.40;11.40;;;;;12.18;99.74;99447.91;6307243;20;2761778;-50
2023/04/18 05:05:53;;;;;;;;;12.00;10.00;;;;;12.37;99.37;99451.00;6284863;20;2794049;-53
2023/04/18 05:08:22;;;;;;;;;15.33;11.00;;;;;12.28;98.65;99452.53;6285431;20;2800362;-54
2023/04/18 05:10:51;;;;;;;;;9.40;9.40;;;;;12.31;98.71;99448.75;6340214;20;2783637;-54
2023/04/18 05:13:21;;;;;;;;;13.20;10.40;;;;;12.27;98.07;99458.91;6302167;20;2792002;-54
2023/04/18 05:15:52;;;;;;;;;7.43;6.71;;;;;12.42;97.19;99459.59;6325727;20;3449200;-50
2023/04/18 05:18:20;;;;;;;;;6.50;6.50;;;;;12.25;97.15;99449.22;6315407;20;2746179;-53
2023/04/18 05:20:49;;;;;;;;;7.60;7.60;;;;;12.32;96.76;99461.22;6306304;20;2748188;-51
2023/04/18 05:23:17;;;;;;;;;7.50;7.50;;;;;12.57;95.41;99463.00;6315206;20;2743989;-55
2023/04/18 05:25:45;;;;;;;;;6.00;6.00;;;;;12.71;94.40;99464.69;6283976;20;2740993;-53
2023/04/18 05:28:13;;;;;;;;;6.00;6.00;;;;;12.48;93.56;99463.66;6285333;20;2739890;-56
2023/04/18 05:30:41;;;;;;;;;6.00;6.00;;;;;12.85;93.17;99461.84;6280641;20;2745146;-52
2023/04/18 05:33:08;;;;;;;;;6.50;6.50;;;;;12.81;92.83;99460.34;6284932;20;2748356;-49
2023/04/18 05:35:38;;;;;;;;;6.60;6.20;;;;;13.00;93.27;99467.91;6306951;20;2736241;-53
2023/04/18 05:38:06;;;;;;;;;6.00;6.00;;;;;12.98;92.71;99471.69;6317731;20;2696129;-54
2023/04/18 05:40:34;;;;;;;;;6.50;6.50;;;;;12.91;91.96;99469.44;6283563;20;2739909;-54
2023/04/18 05:43:02;;;;;;;;;15.50;14.50;;;;;12.74;92.85;99477.91;6280812;20;2808601;-54
2023/04/18 05:45:29;;;;;;;;;5.00;5.00;;;;;12.81;92.77;99476.50;6286026;20;2736756;-55
2023/04/18 05:47:57;;;;;;;;;8.00;6.00;;;;;12.62;92.99;99471.63;6283461;20;2748518;-54
2023/04/18 05:50:25;;;;;;;;;9.00;7.00;;;;;12.88;92.33;99467.00;6292006;20;2747311;-54
2023/04/18 05:52:53;;;;;;;;;3.00;3.00;;;;;12.93;91.59;99472.91;6282270;20;2752932;-56
2023/04/18 05:55:21;;;;;;;;;5.00;2.50;;;;;13.13;90.00;99474.06;6282984;20;2744020;-57
2023/04/18 05:57:50;;;;;;;;;10.00;10.00;;;;;13.57;89.44;99480.66;6307607;20;2779452;-51
2023/04/18 06:00:19;;;;;;;;;7.00;7.00;;;;;13.95;88.10;99474.06;6281384;20;2748268;-55
2023/04/18 06:02:46;;;;;;;;;5.00;5.00;;;;;13.61;86.59;99475.84;6281583;20;2754457;-58
2023/04/18 06:05:15;;;;;;;;;5.50;4.00;;;;;13.53;87.68;99467.50;6284106;20;2748221;-54
2023/04/18 06:07:44;;;;;;;;;30.33;28.67;;;;;13.73;87.05;99477.63;6279343;20;3588795;-56
2023/04/18 06:10:12;;;;;;;;;5.00;3.50;;;;;13.60;86.85;99479.56;6285923;20;2745067;-52
2023/04/18 06:12:40;;;;;;;;;7.00;7.00;;;;;14.01;86.57;99481.72;6283818;20;2748217;-49
2023/04/18 06:15:10;;;;;;;;;5.50;5.50;;;;;14.54;84.71;99475.72;6287319;20;2745066;-55
2023/04/18 06:17:39;;;;;;;;;3.50;3.50;;;;;14.65;83.19;99472.13;6282312;20;2744046;-55
2023/04/18 06:20:08;;;;;;;;;5.00;3.00;;;;;14.79;81.97;99487.22;6283954;20;2756582;-56
2023/04/18 06:22:36;;;;;;;;;5.00;5.00;;;;;14.95;80.53;99484.94;6289542;20;2748642;-55
2023/04/18 06:25:08;;;;;;;;;2.40;2.20;;;;;14.29;81.26;99493.00;6325645;20;2485688;-57
2023/04/18 06:27:38;;;;;;;;;4.00;4.00;;;;;14.95;80.28;99498.47;6339777;20;2755570;-57
2023/04/18 06:30:07;;;;;;;;;4.00;2.00;;;;;15.51;77.55;99498.28;6318605;20;2744052;-56
2023/04/18 06:32:35;;;;;;;;;5.50;5.50;;;;;16.57;72.84;99497.19;6283540;20;2738922;-59
2023/04/18 06:35:03;;;;;;;;;3.00;3.00;;;;;16.16;72.78;99496.28;6287989;20;2741943;-60
2023/04/18 06:37:30;;;;;;;;;4.00;4.00;;;;;15.89;72.00;99496.84;6285037;20;2756506;-60
2023/04/18 06:39:58;;;;;;;;;4.00;2.00;;;;;15.50;72.03;99498.41;6287962;20;2752353;-61
2023/04/18 06:42:26;;;;;;;;;4.00;4.00;;;;;16.39;73.01;99504.25;6284495;20;2744045;-59
2023/04/18 06:44:54;;;;;;;;;2.00;2.00;;;;;15.78;72.26;99499.63;6282827;20;2734688;-61
2023/04/18 06:47:22;;;;;;;;;5.00;4.00;;;;;16.03;72.71;99501.06;6286556;20;2748331;-59
2023/04/18 06:49:50;;;;;;;;;3.00;3.00;;;;;15.51;72.59;99508.25;6283837;20;2733711;-60
2023/04/18 06:52:18;;;;;;;;;3.50;3.50;;;;;16.21;73.02;99513.00;6288422;20;2751341;-60
2023/04/18 06:54:49;;;;;;;;;8.43;7.29;;;;;15.50;73.82;99507.38;6326192;20;3481601;-58
2023/04/18 06:57:17;;;;;;;;;4.00;4.00;;;;;15.42;73.67;99503.59;6316455;20;2750332;-59
2023/04/18 06:59:45;;;;;;;;;5.00;3.00;;;;;15.48;74.22;99506.66;6286306;20;2748238;-60
2023/04/18 07:02:12;;;;;;;;;4.00;4.00;;;;;16.40;73.75;99512.25;6282242;20;2756536;-59
2023/04/18 07:04:40;;;;;;;;;1.50;1.50;;;;;16.51;71.89;99519.41;6285486;20;2756657;-59
2023/04/18 07:07:09;;;;;;;;;1.25;1.25;;;;;18.67;64.30;99522.84;6303894;20;1802508;-59
2023/04/18 07:09:37;;;;;;;;;1.00;1.00;;;;;22.91;49.31;99530.41;6316836;20;2731571;-59
2023/04/18 07:12:06;;;;;;;;;1.00;1.00;;;;;24.35;43.58;99536.28;6288199;20;2731578;-61
2023/04/18 07:14:35;;;;;;;;;4.60;4.60;;;;;23.31;43.27;99533.16;6334950;20;2748199;-61
2023/04/18 07:17:04;;;;;;;;;3.33;2.00;;;;;24.70;40.85;99541.09;6285221;20;2738822;-60
2023/04/18 07:19:33;;;;;;;;;1.25;1.25;;;;;23.56;42.28;99537.44;6332687;20;1784718;-61
2023/04/18 07:22:02;;;;;;;;;1.60;0.00;;;;;23.46;40.55;99547.81;6339017;20;2728430;-58
2023/04/18 07:24:31;;;;;;;;;2.00;2.00;;;;;23.45;40.87;99546.91;6318678;20;2737885;-57
2023/04/18 07:27:01;;;;;;;;;0.00;0.00;;;;;22.76;40.67;99540.41;6320235;20;2725355;-56
2023/04/18 07:29:30;;;;;;;;;1.00;1.00;;;;;24.20;39.82;99547.25;6316193;20;2735788;-60
2023/04/18 07:31:59;;;;;;;;;0.80;0.80;;;;;19.79;47.56;99530.72;6338595;20;2740944;-54
2023/04/18 07:34:29;;;;;;;;;2.00;0.00;;;;;18.20;51.60;99529.16;6316430;20;2726491;-60
2023/04/18 07:36:57;;;;;;;;;0.00;0.00;;;;;18.34;50.36;99521.53;6317507;20;2733662;-60
2023/04/18 07:39:26;;;;;;;;;1.00;1.00;;;;;18.41;51.33;99528.94;6314990;20;2726341;-60
2023/04/18 07:41:53;;;;;;;;;0.00;0.00;;;;;17.94;50.58;99530.78;6316387;20;2727450;-60
2023/04/18 07:44:24;;;;;;;;;0.00;0.00;;;;;17.42;50.53;99531.06;6291106;20;2729870;-59
2023/04/18 07:46:52;;;;;;;;;1.00;1.00;;;;;17.81;51.17;99530.25;6287263;20;2741979;-60
2023/04/18 07:49:19;;;;;;;;;1.00;1.00;;;;;17.59;50.64;99532.22;6285806;20;2738201;-60
2023/04/18 07:51:47;;;;;;;;;0.00;0.00;;;;;17.20;50.42;99532.19;6288520;20;2722284;-60
2023/04/18 07:54:15;;;;;;;;;0.00;0.00;;;;;17.26;51.05;99547.91;6288286;20;2733619;-61
2023/04/18 07:56:43;;;;;;;;;2.00;1.00;;;;;17.96;49.83;99542.38;6290668;20;2735706;-63
2023/04/18 07:59:11;;;;;;;;;0.00;0.00;;;;;17.53;51.46;99541.78;6291309;20;2733736;-60
2023/04/18 08:01:39;;;;;;;;;3.00;1.00;;;;;17.02;52.55;99540.16;6291294;20;2743029;-62
2023/04/18 08:04:07;;;;;;;;;2.00;0.50;;;;;16.66;51.71;99538.88;6293757;20;2737880;-56
2023/04/18 08:06:35;;;;;;;;;1.00;0.00;;;;;16.67;52.10;99544.16;6293250;20;2729477;-57
2023/04/18 08:09:04;;;;;;;;;3.50;2.00;;;;;17.00;52.54;99553.00;6287542;20;2741960;-57
2023/04/18 08:11:33;;;;;;;;;3.00;3.00;;;;;17.53;51.21;99547.19;6291798;20;2754865;-55
2023/04/18 08:14:01;;;;;;;;;0.00;0.00;;;;;17.82;49.14;99549.09;6290381;20;2723264;-58
2023/04/18 08:16:29;;;;;;;;;1.00;1.00;;;;;18.14;49.55;99548.78;6289464;20;2727777;-57
2023/04/18 08:18:57;;;;;;;;;1.67;1.67;;;;;18.46;47.79;99542.09;6291473;20;3445098;-58
2023/04/18 08:21:25;;;;;;;;;0.00;0.00;;;;;18.53;47.65;99545.91;6291824;20;2727402;-58
2023/04/18 08:23:56;;;;;;;;;2.00;2.00;;;;;18.31;49.55;99540.88;6291855;20;2737833;-55
2023/04/18 08:26:24;;;;;;;;;0.00;0.00;;;;;18.01;47.05;99541.91;6291649;20;2727360;-58
2023/04/18 08:28:51;;;;;;;;;2.00;2.00;;;;;18.36;48.89;99552.16;6295663;20;2748211;-58
2023/04/18 08:31:19;;;;;;;;;0.00;0.00;;;;;17.63;45.11;99543.66;6292737;20;2724337;-57
2023/04/18 08:33:47;;;;;;;;;4.00;2.00;;;;;17.93;47.57;99548.06;6290010;20;2745150;-58
2023/04/18 08:36:16;;;;;;;;;1.00;1.00;;;;;18.40;45.50;99543.56;6303514;20;1786793;-61
2023/04/18 08:38:43;;;;;;;;;2.50;1.00;;;;;18.64;45.46;99555.75;6320919;20;2723221;-62
2023/04/18 08:41:11;;;;;;;;;2.00;1.00;;;;;18.69;44.07;99558.03;6290753;20;2737870;-61
2023/04/18 08:43:39;;;;;;;;;2.00;1.00;;;;;18.58;45.41;99554.50;6297799;20;2733708;-61
2023/04/18 08:46:07;;;;;;;;;0.00;0.00;;;;;19.23;44.78;99553.63;6295277;20;2731587;-56
2023/04/18 08:48:36;;;;;;;;;0.00;0.00;;;;;18.98;44.84;99556.06;6320891;20;2724226;-58
2023/04/18 08:51:05;;;;;;;;;0.00;0.00;;;;;18.94;44.90;99551.94;6321299;20;2727461;-57
2023/04/18 08:53:34;;;;;;;;;1.33;1.00;;;;;19.01;44.18;99558.50;6321094;20;2730560;-58
2023/04/18 08:56:04;;;;;;;;;1.00;1.00;;;;;19.02;45.09;99546.59;6315865;20;2725295;-55
2023/04/18 08:58:33;;;;;;;;;0.00;0.00;;;;;19.13;44.72;99561.00;6319973;20;2735715;-58
2023/04/18 09:01:02;;;;;;;;;0.00;0.00;;;;;18.91;44.19;99554.97;6321969;20;2730987;-52
2023/04/18 09:03:37;;;;;;;;;2.50;2.50;;;;;18.92;43.00;99563.97;6317949;20;2746121;-54
2023/04/18 09:06:14;;;;;;;;;2.00;2.00;;;;;18.84;43.84;99559.28;6292883;20;2735693;-56
2023/04/18 09:08:56;;;;;;;;;1.33;0.67;;;;;19.42;43.98;99572.56;6319129;20;2730489;-57
2023/04/18 09:11:27;;;;;;;;;0.00;0.00;;;;;19.32;44.12;99565.47;6320443;20;2731551;-56
2023/04/18 09:13:57;;;;;;;;;3.00;1.00;;;;;19.39;43.59;99567.41;6319320;20;2727390;-58
2023/04/18 09:16:46;;;;;;;;;1.00;1.00;;;;;18.45;46.81;99562.13;6294076;20;2726334;-58
2023/04/18 09:19:18;;;;;;;;;1.00;1.00;;;;;18.26;47.26;99562.19;6292295;20;2728408;-58
2023/04/18 09:21:47;;;;;;;;;3.00;1.00;;;;;18.18;45.68;99571.94;6292690;20;2722146;-57
2023/04/18 09:24:22;;;;;;;;;1.00;1.00;;;;;18.05;44.48;99575.97;6288271;20;2726340;-59
2023/04/18 09:27:00;;;;;;;;;1.00;1.00;;;;;17.91;43.82;99578.13;6289856;20;2733619;-53
2023/04/18 09:29:53;;;;;;;;;0.00;0.00;;;;;17.55;42.45;99569.63;6292155;20;2728430;-59
2023/04/18 09:32:29;;;;;;;;;1.00;1.00;;;;;17.52;42.76;99578.06;6291380;20;2737776;-54
2023/04/18 09:35:04;;;;;;;;;6.00;4.50;;;;;17.76;42.64;99574.94;6286900;20;2750339;-56
2023/04/18 09:37:31;;;;;;;;;5.00;2.50;;;;;17.98;43.69;99584.69;6290360;20;2756544;-57
2023/04/18 09:39:59;;;;;;;;;1.00;1.00;;;;;17.71;42.56;99579.94;6288571;20;2733652;-58
2023/04/18 09:42:36;;;;;;;;;5.00;2.00;;;;;18.36;43.31;99573.91;6287038;20;2741964;-56
2023/04/18 09:45:07;;;;;;;;;0.50;0.50;;;;;17.70;42.51;99577.38;6292929;20;2733712;-53
2023/04/18 09:47:36;;;;;;;;;2.00;1.00;;;;;17.58;44.08;99573.09;6289510;20;2735737;-55
2023/04/18 09:50:07;;;;;;;;;3.00;2.00;;;;;17.94;43.57;99576.97;6288756;20;2756508;-56
2023/04/18 09:52:42;;;;;;;;;0.50;0.00;;;;;18.11;43.78;99578.94;6292081;20;2727461;-58
2023/04/18 09:55:15;;;;;;;;;2.00;2.00;;;;;18.36;43.06;99571.19;6287775;20;2741943;-57
2023/04/18 09:57:47;;;;;;;;;1.00;1.00;;;;;18.36;43.26;99572.03;6288725;20;2727372;-58
2023/04/18 10:00:24;;;;;;;;;3.00;1.00;;;;;19.07;42.71;99571.47;6291033;20;2735798;-57
2023/04/18 10:02:58;;;;;;;;;1.00;1.00;;;;;18.25;42.88;99571.34;6288010;20;2733629;-58
2023/04/18 10:05:33;;;;;;;;;2.60;1.20;;;;;19.01;41.01;99574.81;6309468;20;2741945;-57
2023/04/18 10:08:02;;;;;;;;;2.50;2.50;;;;;19.71;41.78;99574.22;6313731;20;2750267;-56
2023/04/18 10:10:31;;;;;;;;;3.00;2.00;;;;;19.97;41.85;99578.91;6292352;20;2736751;-56
2023/04/18 10:13:02;;;;;;;;;0.00;0.00;;;;;18.71;37.85;99583.22;6318109;20;2732662;-56
2023/04/18 10:15:31;;;;;;;;;2.00;1.00;;;;;18.54;38.74;99585.72;6321240;20;2625289;-55
2023/04/18 10:18:07;;;;;;;;;8.67;2.67;;;;;17.80;41.15;99588.25;6286560;20;2749281;-55
2023/04/18 10:20:35;;;;;;;;;2.00;2.00;;;;;18.25;39.18;99583.09;6314058;20;2738850;-57
2023/04/18 10:23:33;;;;;;;;;2.00;2.00;;;;;18.74;41.39;99585.63;6287993;20;2739925;-57
2023/04/18 10:26:09;;;;;;;;;0.00;0.00;;;;;18.35;39.12;99577.59;6287525;20;2733607;-53
2023/04/18 10:28:56;;;;;;;;;4.00;1.00;;;;;18.95;38.69;99586.28;6292510;20;2737782;-57
2023/04/18 10:31:28;;;;;;;;;1.00;1.00;;;;;18.54;38.77;99593.88;6285722;20;2736766;-57
2023/04/18 10:34:00;;;;;;;;;5.00;2.00;;;;;18.26;41.21;99589.38;6290819;20;2752366;-56
2023/04/18 10:36:33;;;;;;;;;4.00;1.00;;;;;18.25;38.56;99579.50;6277231;20;2733680;-56
2023/04/18 10:39:23;;;;;;;;;2.00;2.00;;;;;18.33;39.39;99577.75;6286384;20;2746123;-55
2023/04/18 10:41:51;;;;;;;;;2.00;1.00;;;;;18.29;40.30;99584.50;6288390;20;2735729;-56
2023/04/18 10:44:21;;;;;;;;;4.00;3.00;;;;;18.36;40.35;99585.63;6283969;20;2756691;-56
2023/04/18 10:46:50;;;;;;;;;2.00;2.00;;;;;19.30;39.08;99574.66;6282804;20;2746243;-53
2023/04/18 10:49:23;;;;;;;;;0.00;0.00;;;;;19.27;39.98;99588.56;6283878;20;2735833;-52
2023/04/18 10:51:58;;;;;;;;;1.00;1.00;;;;;18.92;39.79;99581.16;6316187;20;2726314;-55
2023/04/18 10:54:41;;;;;;;;;0.67;0.67;;;;;19.08;40.78;99585.94;6314560;20;2729614;-52
2023/04/18 10:57:10;;;;;;;;;1.00;0.00;;;;;19.01;39.82;99574.81;6315832;20;2728408;-57
2023/04/18 10:59:50;;;;;;;;;2.67;2.67;;;;;19.28;40.34;99581.25;6310399;20;2756568;-54
2023/04/18 11:02:31;;;;;;;;;0.00;0.00;;;;;19.11;36.84;99579.34;6317910;20;2733750;-52
2023/04/18 11:05:05;;;;;;;;;4.00;1.00;;;;;19.33;38.13;99583.53;6318989;20;2743435;-52
2023/04/18 11:07:38;;;;;;;;;1.00;0.00;;;;;19.26;35.69;99584.13;6316464;20;2726415;-55
2023/04/18 11:10:08;;;;;;;;;5.00;2.00;;;;;19.41;36.18;99584.47;6317499;20;2746141;-53
2023/04/18 11:12:40;;;;;;;;;1.33;1.33;;;;;19.11;37.82;99574.75;6317026;20;2735819;-54
2023/04/18 11:15:16;;;;;;;;;2.67;1.33;;;;;19.89;37.54;99569.63;6317358;20;2735774;-56
2023/04/18 11:17:44;;;;;;;;;0.00;0.00;;;;;20.82;36.16;99591.75;6318020;20;2727397;-56
2023/04/18 11:20:14;;;;;;;;;1.00;1.00;;;;;20.19;37.27;99583.81;6334401;20;2715943;-54